createdAt,value
2019-05-02T00:01:06.353Z,91.43
2019-05-02T00:06:11.377Z,97.27
2019-05-02T00:11:17.053Z,87.57
2019-05-02T00:16:24.571Z,91.87
2019-05-02T00:21:38.241Z,95.93
2019-05-02T00:27:01.351Z,90.87
2019-05-02T00:32:07.663Z,95.23
2019-05-02T00:37:41.877Z,101.73
2019-05-02T00:42:43.473Z,115.20
2019-05-02T00:47:52.737Z,117.73
2019-05-02T00:53:18.709Z,107.23
2019-05-02T00:58:27.369Z,111.90
2019-05-02T01:03:38.234Z,121.37
2019-05-02T01:09:05.933Z,123.87
2019-05-02T01:14:14.641Z,113.63
2019-05-02T01:19:19.125Z,141.20
2019-05-02T01:24:48.451Z,141.10
2019-05-02T01:30:01.596Z,159.60
2019-05-02T01:35:07.861Z,140.63
2019-05-02T01:40:12.971Z,156.80
2019-05-02T01:45:20.550Z,159.27
2019-05-02T01:50:21.999Z,135.77
2019-05-02T01:55:52.063Z,140.43
2019-05-02T02:01:06.305Z,124.60
2019-05-02T02:06:17.728Z,126.57
2019-05-02T02:11:22.347Z,130.13
2019-05-02T02:16:26.788Z,112.10
2019-05-02T02:21:43.021Z,137.43
2019-05-02T02:26:49.794Z,120.50
2019-05-02T02:31:57.515Z,132.60
2019-05-02T02:37:15.209Z,134.17
2019-05-02T02:42:16.677Z,138.57
2019-05-02T02:47:21.389Z,156.13
2019-05-02T02:52:44.586Z,150.73
2019-05-02T02:57:41.532Z,156.73
2019-05-02T03:02:58.160Z,165.30
2019-05-02T03:08:07.052Z,150.03
2019-05-02T03:13:21.781Z,211.83
2019-05-02T03:18:26.603Z,190.37
2019-05-02T03:23:31.487Z,210.43
2019-05-02T03:29:00.654Z,226.40
2019-05-02T03:34:15.438Z,191.03
2019-05-02T03:39:23.204Z,207.20
2019-05-02T03:44:36.719Z,270.00
2019-05-02T03:49:52.378Z,290.97
2019-05-02T03:54:57.595Z,406.50
2019-05-02T03:59:58.921Z,341.33
2019-05-02T04:05:04.994Z,301.80
2019-05-02T04:10:34.629Z,284.60
2019-05-02T04:15:45.321Z,241.73
2019-05-02T04:21:08.654Z,218.07
2019-05-02T04:26:37.206Z,215.80
2019-05-02T04:31:46.994Z,184.27
2019-05-02T04:37:26.838Z,196.50
2019-05-02T04:42:43.329Z,186.47
2019-05-02T04:47:57.523Z,184.23
2019-05-02T04:52:53.648Z,176.07
2019-05-02T04:57:51.430Z,166.57
2019-05-02T05:02:53.371Z,164.33
2019-05-02T05:08:03.057Z,151.00
2019-05-02T05:13:26.250Z,159.70
2019-05-02T05:18:37.799Z,157.43
2019-05-02T05:24:01.020Z,144.20
2019-05-02T05:28:59.853Z,155.90
2019-05-02T05:34:32.731Z,143.03
2019-05-02T05:39:38.165Z,133.70
2019-05-02T05:44:42.935Z,130.60
2019-05-02T05:49:44.383Z,135.80
2019-05-02T05:55:00.819Z,125.07
2019-05-02T06:00:11.540Z,120.47
2019-05-02T06:05:17.470Z,117.97
2019-05-02T06:10:18.985Z,118.37
2019-05-02T06:15:23.593Z,108.13
2019-05-02T06:20:30.623Z,114.87
2019-05-02T06:25:36.722Z,110.17
2019-05-02T06:30:44.797Z,108.63
2019-05-02T06:35:51.904Z,110.47
2019-05-02T06:40:54.626Z,107.13
2019-05-02T06:45:56.094Z,104.83
2019-05-02T06:50:57.397Z,113.20
2019-05-02T06:56:08.049Z,102.60
2019-05-02T07:01:21.308Z,92.20
2019-05-02T07:06:25.539Z,84.33
2019-05-02T07:11:33.205Z,94.53
2019-05-02T07:16:49.582Z,83.60
2019-05-02T07:21:53.209Z,72.67
2019-05-02T07:26:56.925Z,73.10
2019-05-02T07:31:56.561Z,77.50
2019-05-02T07:37:08.539Z,78.30
2019-05-02T07:42:08.475Z,86.50
2019-05-02T07:47:09.839Z,78.37
2019-05-02T07:52:12.275Z,89.17
2019-05-02T07:57:16.063Z,87.07
2019-05-02T08:02:20.323Z,79.20
2019-05-02T08:07:25.867Z,75.73
2019-05-02T08:12:28.384Z,73.33
2019-05-02T08:17:32.908Z,69.53
2019-05-02T08:22:34.396Z,73.83
2019-05-02T08:28:15.857Z,73.73
2019-05-02T08:33:23.877Z,80.00
2019-05-02T08:38:28.568Z,80.47
2019-05-02T08:43:33.111Z,72.97
2019-05-02T08:48:41.701Z,77.43
2019-05-02T08:53:40.547Z,81.60
2019-05-02T08:58:56.146Z,75.70
2019-05-02T09:03:57.614Z,76.37
2019-05-02T09:09:01.241Z,75.67
2019-05-02T09:14:05.889Z,74.60
2019-05-02T09:19:13.533Z,81.10
2019-05-02T09:24:20.696Z,75.10
2019-05-02T09:29:17.564Z,76.87
2019-05-02T09:34:28.066Z,70.20
2019-05-02T09:39:41.528Z,80.60
2019-05-02T09:44:56.906Z,75.60
2019-05-02T09:50:20.561Z,89.83
2019-05-02T09:55:25.648Z,88.00
2019-05-02T10:00:52.494Z,82.73
2019-05-02T10:05:55.448Z,92.03
2019-05-02T10:10:58.013Z,90.60
2019-05-02T10:16:01.935Z,85.10
2019-05-02T10:21:07.878Z,99.07
2019-05-02T10:26:20.008Z,105.87
2019-05-02T10:31:27.711Z,98.93
2019-05-02T10:36:32.383Z,112.53
2019-05-02T10:41:43.638Z,109.27
2019-05-02T10:46:53.403Z,113.17
2019-05-02T10:51:56.757Z,122.53
2019-05-02T10:57:03.985Z,114.33
2019-05-02T11:02:08.374Z,104.70
2019-05-02T11:07:17.231Z,104.03
2019-05-02T11:18:52.290Z,94.30
2019-05-02T11:24:14.369Z,85.87
2019-05-02T11:29:22.778Z,89.07
2019-05-02T11:34:30.185Z,88.13
2019-05-02T11:39:44.306Z,82.10
2019-05-02T11:44:38.159Z,86.40
2019-05-02T11:49:46.773Z,75.37
2019-05-02T11:55:13.914Z,70.47
2019-05-02T12:00:32.436Z,95.93
2019-05-02T12:05:42.053Z,85.30
2019-05-02T12:10:43.944Z,106.67
2019-05-02T12:15:46.436Z,77.17
2019-05-02T12:21:06.034Z,97.27
2019-05-02T12:26:07.420Z,65.10
2019-05-02T12:31:35.567Z,70.80
2019-05-02T12:36:58.969Z,67.90
2019-05-02T12:42:06.712Z,67.03
2019-05-02T12:47:22.434Z,80.77
2019-05-02T12:52:25.282Z,74.83
2019-05-02T12:57:32.000Z,51.90
2019-05-02T13:02:43.929Z,45.63
2019-05-02T13:07:55.288Z,40.77
2019-05-02T13:12:57.367Z,36.50
2019-05-02T13:18:02.978Z,36.60
2019-05-02T13:23:27.308Z,33.47
2019-05-02T13:28:32.480Z,41.17
2019-05-02T13:33:42.807Z,40.43
2019-05-02T13:38:51.881Z,29.37
2019-05-02T13:43:54.312Z,34.63
2019-05-02T13:49:02.151Z,25.50
2019-05-02T13:54:12.424Z,23.70
2019-05-02T13:59:37.103Z,23.77
2019-05-02T14:04:46.674Z,25.67
2019-05-02T14:09:57.447Z,25.23
2019-05-02T14:15:10.886Z,24.43
2019-05-02T14:20:17.824Z,26.80
2019-05-02T14:25:19.353Z,23.40
2019-05-02T14:30:40.084Z,23.77
2019-05-02T14:35:39.135Z,21.70
2019-05-02T14:40:47.238Z,22.63
2019-05-02T14:46:12.451Z,22.17
2019-05-02T14:51:16.818Z,23.73
2019-05-02T14:56:47.563Z,25.00
2019-05-02T15:02:07.835Z,15.10
2019-05-02T15:07:17.651Z,14.57
2019-05-02T15:12:19.233Z,13.73
2019-05-02T15:17:38.230Z,12.17
2019-05-02T15:22:42.941Z,13.90
2019-05-02T15:27:58.181Z,16.43
2019-05-02T15:33:02.956Z,16.20
2019-05-02T15:38:14.481Z,21.07
2019-05-02T15:43:31.805Z,22.67
2019-05-02T15:48:33.564Z,27.57
2019-05-02T15:53:46.722Z,30.93
2019-05-02T15:58:42.957Z,31.10
2019-05-02T16:03:48.468Z,37.37
2019-05-02T16:08:55.705Z,31.20
2019-05-02T16:13:57.214Z,38.63
2019-05-02T16:19:24.855Z,37.27
2019-05-02T16:24:24.384Z,40.33
2019-05-02T16:29:45.726Z,39.67
2019-05-02T16:34:58.362Z,43.10
2019-05-02T16:40:08.610Z,46.97
2019-05-02T16:45:38.163Z,46.00
2019-05-02T16:50:39.544Z,50.57
2019-05-02T16:55:58.409Z,45.57
2019-05-02T17:01:06.118Z,49.63
2019-05-02T17:06:25.990Z,47.70
2019-05-02T17:11:42.199Z,44.40
2019-05-02T17:17:33.252Z,40.00
2019-05-02T17:22:36.554Z,41.70
2019-05-02T17:28:01.164Z,49.23
2019-05-02T17:33:50.967Z,50.83
2019-05-02T17:38:54.406Z,47.33
2019-05-02T17:44:12.907Z,40.37
2019-05-02T17:49:23.074Z,38.07
2019-05-02T17:54:57.525Z,45.03
2019-05-02T18:00:16.586Z,38.53
2019-05-02T18:05:15.670Z,37.57
2019-05-02T18:10:44.082Z,30.93
2019-05-02T18:15:48.897Z,31.17
2019-05-02T18:20:53.562Z,34.93
2019-05-02T18:26:11.491Z,37.97
2019-05-02T18:31:18.114Z,38.43
2019-05-02T18:36:37.741Z,43.47
2019-05-02T18:41:49.294Z,36.70
2019-05-02T18:46:51.937Z,36.37
2019-05-02T18:51:57.278Z,37.30
2019-05-02T18:57:24.430Z,33.23
2019-05-02T19:02:32.706Z,28.27
2019-05-02T19:07:52.018Z,27.10
2019-05-02T19:12:51.061Z,26.33
2019-05-02T19:17:55.708Z,26.07
2019-05-02T19:23:29.590Z,28.70
2019-05-02T19:28:47.390Z,27.73
2019-05-02T19:33:48.933Z,29.53
2019-05-02T19:38:56.917Z,28.70
2019-05-02T19:44:15.352Z,30.23
2019-05-02T19:49:19.242Z,31.33
2019-05-02T19:54:23.789Z,32.40
2019-05-02T19:59:32.114Z,37.13
2019-05-02T20:04:52.913Z,33.93
2019-05-02T20:09:56.360Z,39.07
2019-05-02T20:14:57.924Z,50.60
2019-05-02T20:20:14.427Z,49.30
2019-05-02T20:25:19.858Z,36.77
2019-05-02T20:30:22.484Z,35.37
2019-05-02T20:35:32.382Z,35.67
2019-05-02T20:40:49.041Z,31.63
2019-05-02T20:45:52.577Z,30.20
2019-05-02T20:51:11.985Z,30.87
2019-05-02T20:56:13.181Z,26.90
2019-05-02T21:01:19.766Z,27.97
2019-05-02T21:06:40.554Z,31.50
2019-05-02T21:11:41.757Z,28.13
2019-05-02T21:17:05.003Z,27.33
2019-05-02T21:22:35.044Z,35.17
2019-05-02T21:28:09.116Z,35.00
2019-05-02T21:33:52.032Z,44.77
2019-05-02T21:39:17.436Z,39.73
2019-05-02T21:44:38.710Z,45.97
2019-05-02T21:49:45.181Z,49.97
2019-05-02T21:55:01.912Z,47.57
2019-05-02T22:00:42.179Z,62.70
2019-05-02T22:05:44.143Z,66.00
2019-05-02T22:10:49.188Z,54.90
2019-05-02T22:15:51.620Z,48.53
2019-05-02T22:21:01.718Z,51.37
2019-05-02T22:27:01.776Z,48.53
2019-05-02T22:32:09.154Z,49.20
2019-05-02T22:37:12.568Z,51.67
2019-05-02T22:42:17.529Z,48.87
2019-05-02T22:47:19.007Z,42.47
2019-05-02T22:52:52.246Z,41.90
2019-05-02T22:58:18.833Z,46.93
2019-05-02T23:03:26.185Z,44.63
2019-05-02T23:08:43.524Z,43.87
2019-05-02T23:13:49.299Z,41.33
2019-05-02T23:18:58.512Z,37.50
2019-05-02T23:24:16.339Z,34.60
2019-05-02T23:29:22.593Z,38.97
2019-05-02T23:34:27.192Z,31.33
2019-05-02T23:39:29.668Z,37.57
2019-05-02T23:44:37.254Z,38.00
2019-05-02T23:49:48.901Z,38.73
2019-05-02T23:55:17.527Z,29.67
